sensor_id;sensor_type;location;lat;lon;timestamp;P1;durP1;ratioP1;P2;durP2;ratioP2
7205;SDS011;3644;53.480;10.004;2022-08-27T00:00:18;43.53;;;13.87;;
7205;SDS011;3644;53.480;10.004;2022-08-27T00:02:44;34.87;;;12.27;;
7205;SDS011;3644;53.480;10.004;2022-08-27T00:05:13;26.33;;;11.53;;
7205;SDS011;3644;53.480;10.004;2022-08-27T00:07:40;26.67;;;11.80;;
7205;SDS011;3644;53.480;10.004;2022-08-27T00:10:07;29.20;;;13.23;;
7205;SDS011;3644;53.480;10.004;2022-08-27T00:12:34;21.53;;;11.30;;
7205;SDS011;3644;53.480;10.004;2022-08-27T00:15:00;25.67;;;12.10;;
7205;SDS011;3644;53.480;10.004;2022-08-27T00:17:27;36.33;;;12.50;;
7205;SDS011;3644;53.480;10.004;2022-08-27T00:19:53;30.67;;;11.40;;
7205;SDS011;3644;53.480;10.004;2022-08-27T00:22:18;27.40;;;11.50;;
7205;SDS011;3644;53.480;10.004;2022-08-27T00:24:44;27.47;;;11.30;;
7205;SDS011;3644;53.480;10.004;2022-08-27T00:27:09;29.57;;;11.40;;
7205;SDS011;3644;53.480;10.004;2022-08-27T00:29:35;23.60;;;10.57;;
7205;SDS011;3644;53.480;10.004;2022-08-27T00:32:00;31.30;;;11.30;;
7205;SDS011;3644;53.480;10.004;2022-08-27T00:34:26;24.97;;;10.10;;
7205;SDS011;3644;53.480;10.004;2022-08-27T00:36:52;18.47;;;9.53;;
7205;SDS011;3644;53.480;10.004;2022-08-27T00:39:18;19.90;;;9.60;;
7205;SDS011;3644;53.480;10.004;2022-08-27T00:41:44;31.07;;;10.73;;
7205;SDS011;3644;53.480;10.004;2022-08-27T00:44:10;26.33;;;11.10;;
7205;SDS011;3644;53.480;10.004;2022-08-27T00:46:39;31.43;;;11.67;;
7205;SDS011;3644;53.480;10.004;2022-08-27T00:49:15;28.93;;;10.40;;
7205;SDS011;3644;53.480;10.004;2022-08-27T00:51:45;35.90;;;11.47;;
7205;SDS011;3644;53.480;10.004;2022-08-27T00:54:17;24.63;;;10.00;;
7205;SDS011;3644;53.480;10.004;2022-08-27T00:56:43;28.63;;;11.67;;
7205;SDS011;3644;53.480;10.004;2022-08-27T00:59:10;27.20;;;12.47;;
7205;SDS011;3644;53.480;10.004;2022-08-27T01:01:39;24.00;;;11.67;;
7205;SDS011;3644;53.480;10.004;2022-08-27T01:04:26;35.47;;;11.70;;
7205;SDS011;3644;53.480;10.004;2022-08-27T01:06:52;22.43;;;10.83;;
7205;SDS011;3644;53.480;10.004;2022-08-27T01:09:18;32.93;;;11.63;;
7205;SDS011;3644;53.480;10.004;2022-08-27T01:11:45;26.53;;;12.47;;
7205;SDS011;3644;53.480;10.004;2022-08-27T01:14:12;26.37;;;11.33;;
7205;SDS011;3644;53.480;10.004;2022-08-27T01:16:39;27.40;;;11.93;;
7205;SDS011;3644;53.480;10.004;2022-08-27T01:19:10;30.33;;;11.20;;
7205;SDS011;3644;53.480;10.004;2022-08-27T01:24:37;22.43;;;12.43;;
7205;SDS011;3644;53.480;10.004;2022-08-27T01:27:10;24.87;;;12.70;;
7205;SDS011;3644;53.480;10.004;2022-08-27T01:29:39;38.17;;;13.23;;
7205;SDS011;3644;53.480;10.004;2022-08-27T01:32:17;41.17;;;13.50;;
7205;SDS011;3644;53.480;10.004;2022-08-27T01:34:44;20.37;;;11.47;;
7205;SDS011;3644;53.480;10.004;2022-08-27T01:37:11;20.57;;;11.33;;
7205;SDS011;3644;53.480;10.004;2022-08-27T01:39:38;26.60;;;14.10;;
7205;SDS011;3644;53.480;10.004;2022-08-27T01:42:07;26.97;;;13.60;;
7205;SDS011;3644;53.480;10.004;2022-08-27T01:44:42;35.60;;;15.23;;
7205;SDS011;3644;53.480;10.004;2022-08-27T01:47:10;27.50;;;13.23;;
7205;SDS011;3644;53.480;10.004;2022-08-27T01:49:35;27.07;;;14.27;;
7205;SDS011;3644;53.480;10.004;2022-08-27T01:52:01;25.63;;;14.27;;
7205;SDS011;3644;53.480;10.004;2022-08-27T01:54:28;26.77;;;14.17;;
7205;SDS011;3644;53.480;10.004;2022-08-27T01:56:55;32.37;;;14.67;;
7205;SDS011;3644;53.480;10.004;2022-08-27T01:59:20;31.50;;;13.43;;
7205;SDS011;3644;53.480;10.004;2022-08-27T02:01:46;44.40;;;16.53;;
7205;SDS011;3644;53.480;10.004;2022-08-27T02:04:11;25.43;;;13.93;;
7205;SDS011;3644;53.480;10.004;2022-08-27T02:06:37;43.97;;;17.80;;
7205;SDS011;3644;53.480;10.004;2022-08-27T02:09:02;37.93;;;15.10;;
7205;SDS011;3644;53.480;10.004;2022-08-27T02:11:28;28.80;;;14.20;;
7205;SDS011;3644;53.480;10.004;2022-08-27T02:13:53;47.17;;;18.60;;
7205;SDS011;3644;53.480;10.004;2022-08-27T02:16:19;43.90;;;16.73;;
7205;SDS011;3644;53.480;10.004;2022-08-27T02:18:46;30.53;;;15.57;;
7205;SDS011;3644;53.480;10.004;2022-08-27T02:21:11;34.70;;;16.03;;
7205;SDS011;3644;53.480;10.004;2022-08-27T02:23:39;37.63;;;16.83;;
7205;SDS011;3644;53.480;10.004;2022-08-27T02:26:06;37.37;;;16.37;;
7205;SDS011;3644;53.480;10.004;2022-08-27T02:28:32;30.63;;;14.80;;
7205;SDS011;3644;53.480;10.004;2022-08-27T02:30:58;30.50;;;15.90;;
7205;SDS011;3644;53.480;10.004;2022-08-27T02:33:24;34.80;;;14.90;;
7205;SDS011;3644;53.480;10.004;2022-08-27T02:35:50;27.10;;;14.13;;
7205;SDS011;3644;53.480;10.004;2022-08-27T02:38:16;35.30;;;15.10;;
7205;SDS011;3644;53.480;10.004;2022-08-27T02:40:41;34.43;;;12.73;;
7205;SDS011;3644;53.480;10.004;2022-08-27T02:43:07;31.83;;;13.47;;
7205;SDS011;3644;53.480;10.004;2022-08-27T02:45:33;25.07;;;12.43;;
7205;SDS011;3644;53.480;10.004;2022-08-27T02:48:00;33.93;;;13.90;;
7205;SDS011;3644;53.480;10.004;2022-08-27T02:50:26;37.10;;;12.90;;
7205;SDS011;3644;53.480;10.004;2022-08-27T02:52:51;33.37;;;15.23;;
7205;SDS011;3644;53.480;10.004;2022-08-27T02:55:17;37.63;;;14.03;;
7205;SDS011;3644;53.480;10.004;2022-08-27T02:57:43;21.07;;;12.13;;
7205;SDS011;3644;53.480;10.004;2022-08-27T03:00:09;41.30;;;15.43;;
7205;SDS011;3644;53.480;10.004;2022-08-27T03:02:37;33.07;;;13.70;;
7205;SDS011;3644;53.480;10.004;2022-08-27T03:05:03;35.27;;;15.07;;
7205;SDS011;3644;53.480;10.004;2022-08-27T03:07:30;38.83;;;16.73;;
7205;SDS011;3644;53.480;10.004;2022-08-27T03:09:56;26.07;;;13.40;;
7205;SDS011;3644;53.480;10.004;2022-08-27T03:12:21;39.80;;;13.57;;
7205;SDS011;3644;53.480;10.004;2022-08-27T03:14:48;26.57;;;12.37;;
7205;SDS011;3644;53.480;10.004;2022-08-27T03:17:14;29.00;;;12.60;;
7205;SDS011;3644;53.480;10.004;2022-08-27T03:19:58;27.60;;;14.07;;
7205;SDS011;3644;53.480;10.004;2022-08-27T03:22:25;29.20;;;11.90;;
7205;SDS011;3644;53.480;10.004;2022-08-27T03:24:51;25.90;;;11.67;;
7205;SDS011;3644;53.480;10.004;2022-08-27T03:27:16;37.60;;;13.43;;
7205;SDS011;3644;53.480;10.004;2022-08-27T03:29:42;40.40;;;13.80;;
7205;SDS011;3644;53.480;10.004;2022-08-27T03:32:07;34.23;;;13.67;;
7205;SDS011;3644;53.480;10.004;2022-08-27T03:34:33;26.83;;;12.40;;
7205;SDS011;3644;53.480;10.004;2022-08-27T03:36:58;27.57;;;14.10;;
7205;SDS011;3644;53.480;10.004;2022-08-27T03:39:25;30.27;;;12.73;;
7205;SDS011;3644;53.480;10.004;2022-08-27T03:41:50;25.97;;;12.50;;
7205;SDS011;3644;53.480;10.004;2022-08-27T03:44:16;30.03;;;12.83;;
7205;SDS011;3644;53.480;10.004;2022-08-27T03:46:42;33.20;;;14.00;;
7205;SDS011;3644;53.480;10.004;2022-08-27T03:49:07;28.50;;;11.93;;
7205;SDS011;3644;53.480;10.004;2022-08-27T03:51:33;24.67;;;12.97;;
7205;SDS011;3644;53.480;10.004;2022-08-27T03:53:58;34.67;;;15.33;;
7205;SDS011;3644;53.480;10.004;2022-08-27T03:56:24;31.10;;;13.90;;
7205;SDS011;3644;53.480;10.004;2022-08-27T03:58:49;29.13;;;14.50;;
7205;SDS011;3644;53.480;10.004;2022-08-27T04:01:15;35.90;;;15.00;;
7205;SDS011;3644;53.480;10.004;2022-08-27T04:03:41;39.70;;;15.23;;
7205;SDS011;3644;53.480;10.004;2022-08-27T04:06:06;34.73;;;15.00;;
7205;SDS011;3644;53.480;10.004;2022-08-27T04:08:32;33.13;;;14.87;;
7205;SDS011;3644;53.480;10.004;2022-08-27T04:10:58;34.07;;;16.20;;
7205;SDS011;3644;53.480;10.004;2022-08-27T04:13:23;34.70;;;18.93;;
7205;SDS011;3644;53.480;10.004;2022-08-27T04:15:49;37.40;;;16.70;;
7205;SDS011;3644;53.480;10.004;2022-08-27T04:18:16;37.70;;;17.73;;
7205;SDS011;3644;53.480;10.004;2022-08-27T04:20:43;31.93;;;16.90;;
7205;SDS011;3644;53.480;10.004;2022-08-27T04:23:09;30.07;;;18.27;;
7205;SDS011;3644;53.480;10.004;2022-08-27T04:25:37;32.90;;;17.57;;
7205;SDS011;3644;53.480;10.004;2022-08-27T04:28:04;32.47;;;18.40;;
7205;SDS011;3644;53.480;10.004;2022-08-27T04:30:29;32.07;;;16.30;;
7205;SDS011;3644;53.480;10.004;2022-08-27T04:32:55;33.50;;;15.77;;
7205;SDS011;3644;53.480;10.004;2022-08-27T04:35:22;38.50;;;15.47;;
7205;SDS011;3644;53.480;10.004;2022-08-27T04:37:47;36.03;;;16.27;;
7205;SDS011;3644;53.480;10.004;2022-08-27T04:40:13;31.33;;;14.27;;
7205;SDS011;3644;53.480;10.004;2022-08-27T04:42:39;25.93;;;13.50;;
7205;SDS011;3644;53.480;10.004;2022-08-27T04:45:04;32.50;;;14.07;;
7205;SDS011;3644;53.480;10.004;2022-08-27T04:47:30;31.73;;;15.90;;
7205;SDS011;3644;53.480;10.004;2022-08-27T04:49:56;26.40;;;14.20;;
7205;SDS011;3644;53.480;10.004;2022-08-27T04:52:21;25.80;;;14.77;;
7205;SDS011;3644;53.480;10.004;2022-08-27T04:54:47;23.37;;;13.57;;
7205;SDS011;3644;53.480;10.004;2022-08-27T04:57:12;30.73;;;14.90;;
7205;SDS011;3644;53.480;10.004;2022-08-27T04:59:38;26.73;;;14.50;;
7205;SDS011;3644;53.480;10.004;2022-08-27T05:02:04;36.30;;;15.83;;
7205;SDS011;3644;53.480;10.004;2022-08-27T05:04:33;24.67;;;14.20;;
7205;SDS011;3644;53.480;10.004;2022-08-27T05:07:01;20.27;;;12.80;;
7205;SDS011;3644;53.480;10.004;2022-08-27T05:09:27;28.70;;;13.60;;
7205;SDS011;3644;53.480;10.004;2022-08-27T05:11:53;25.03;;;12.63;;
7205;SDS011;3644;53.480;10.004;2022-08-27T05:14:19;23.60;;;13.30;;
7205;SDS011;3644;53.480;10.004;2022-08-27T05:16:46;29.43;;;14.97;;
7205;SDS011;3644;53.480;10.004;2022-08-27T05:19:11;22.87;;;13.47;;
7205;SDS011;3644;53.480;10.004;2022-08-27T05:21:44;26.50;;;15.17;;
7205;SDS011;3644;53.480;10.004;2022-08-27T05:24:12;25.50;;;14.30;;
7205;SDS011;3644;53.480;10.004;2022-08-27T05:26:37;40.83;;;13.20;;
7205;SDS011;3644;53.480;10.004;2022-08-27T05:29:03;20.20;;;12.40;;
7205;SDS011;3644;53.480;10.004;2022-08-27T05:31:30;26.73;;;12.30;;
7205;SDS011;3644;53.480;10.004;2022-08-27T05:33:56;31.70;;;11.57;;
7205;SDS011;3644;53.480;10.004;2022-08-27T05:36:26;19.73;;;10.40;;
7205;SDS011;3644;53.480;10.004;2022-08-27T05:38:56;27.77;;;14.73;;
7205;SDS011;3644;53.480;10.004;2022-08-27T05:41:24;30.60;;;14.23;;
7205;SDS011;3644;53.480;10.004;2022-08-27T05:43:52;21.27;;;12.47;;
7205;SDS011;3644;53.480;10.004;2022-08-27T05:46:20;22.97;;;12.43;;
7205;SDS011;3644;53.480;10.004;2022-08-27T05:48:48;25.63;;;11.30;;
7205;SDS011;3644;53.480;10.004;2022-08-27T05:51:18;21.90;;;11.53;;
7205;SDS011;3644;53.480;10.004;2022-08-27T05:53:48;20.87;;;11.23;;
7205;SDS011;3644;53.480;10.004;2022-08-27T05:56:15;20.60;;;9.60;;
7205;SDS011;3644;53.480;10.004;2022-08-27T05:58:45;19.27;;;10.50;;
7205;SDS011;3644;53.480;10.004;2022-08-27T06:01:30;17.83;;;9.97;;
7205;SDS011;3644;53.480;10.004;2022-08-27T06:03:58;18.90;;;9.20;;
7205;SDS011;3644;53.480;10.004;2022-08-27T06:06:24;22.77;;;10.90;;
7205;SDS011;3644;53.480;10.004;2022-08-27T06:08:50;25.03;;;11.03;;
7205;SDS011;3644;53.480;10.004;2022-08-27T06:11:17;22.73;;;10.10;;
7205;SDS011;3644;53.480;10.004;2022-08-27T06:13:43;17.50;;;10.33;;
7205;SDS011;3644;53.480;10.004;2022-08-27T06:16:11;16.27;;;10.63;;
7205;SDS011;3644;53.480;10.004;2022-08-27T06:18:40;23.53;;;11.67;;
7205;SDS011;3644;53.480;10.004;2022-08-27T06:21:07;27.60;;;12.53;;
7205;SDS011;3644;53.480;10.004;2022-08-27T06:23:33;23.67;;;12.87;;
7205;SDS011;3644;53.480;10.004;2022-08-27T06:25:59;19.87;;;12.70;;
7205;SDS011;3644;53.480;10.004;2022-08-27T06:28:26;21.30;;;12.80;;
7205;SDS011;3644;53.480;10.004;2022-08-27T06:31:00;32.93;;;15.30;;
7205;SDS011;3644;53.480;10.004;2022-08-27T06:33:34;28.90;;;14.50;;
7205;SDS011;3644;53.480;10.004;2022-08-27T06:36:04;36.67;;;14.13;;
7205;SDS011;3644;53.480;10.004;2022-08-27T06:38:32;30.80;;;14.83;;
7205;SDS011;3644;53.480;10.004;2022-08-27T06:40:58;27.57;;;14.30;;
7205;SDS011;3644;53.480;10.004;2022-08-27T06:43:24;26.70;;;14.90;;
7205;SDS011;3644;53.480;10.004;2022-08-27T06:45:50;30.63;;;17.10;;
7205;SDS011;3644;53.480;10.004;2022-08-27T06:48:16;25.27;;;14.20;;
7205;SDS011;3644;53.480;10.004;2022-08-27T06:50:43;28.67;;;17.20;;
7205;SDS011;3644;53.480;10.004;2022-08-27T06:53:08;35.23;;;16.63;;
7205;SDS011;3644;53.480;10.004;2022-08-27T06:55:45;23.10;;;14.27;;
7205;SDS011;3644;53.480;10.004;2022-08-27T06:58:12;22.27;;;13.80;;
7205;SDS011;3644;53.480;10.004;2022-08-27T07:00:39;30.40;;;13.83;;
7205;SDS011;3644;53.480;10.004;2022-08-27T07:03:05;21.07;;;13.47;;
7205;SDS011;3644;53.480;10.004;2022-08-27T07:05:32;30.33;;;13.93;;
7205;SDS011;3644;53.480;10.004;2022-08-27T07:08:00;23.43;;;13.53;;
7205;SDS011;3644;53.480;10.004;2022-08-27T07:10:26;23.27;;;13.17;;
7205;SDS011;3644;53.480;10.004;2022-08-27T07:12:52;32.07;;;13.80;;
7205;SDS011;3644;53.480;10.004;2022-08-27T07:15:18;23.73;;;12.67;;
7205;SDS011;3644;53.480;10.004;2022-08-27T07:17:44;27.23;;;14.20;;
7205;SDS011;3644;53.480;10.004;2022-08-27T07:20:13;31.07;;;15.30;;
7205;SDS011;3644;53.480;10.004;2022-08-27T07:22:42;24.40;;;14.53;;
7205;SDS011;3644;53.480;10.004;2022-08-27T07:25:10;32.13;;;13.80;;
7205;SDS011;3644;53.480;10.004;2022-08-27T07:27:38;25.00;;;15.60;;
7205;SDS011;3644;53.480;10.004;2022-08-27T07:30:06;25.13;;;13.60;;
7205;SDS011;3644;53.480;10.004;2022-08-27T07:32:36;34.60;;;15.23;;
7205;SDS011;3644;53.480;10.004;2022-08-27T07:35:02;28.43;;;14.50;;
7205;SDS011;3644;53.480;10.004;2022-08-27T07:37:27;20.13;;;13.23;;
7205;SDS011;3644;53.480;10.004;2022-08-27T07:39:53;47.50;;;15.23;;
7205;SDS011;3644;53.480;10.004;2022-08-27T07:42:18;21.10;;;11.33;;
7205;SDS011;3644;53.480;10.004;2022-08-27T07:45:03;34.43;;;13.43;;
7205;SDS011;3644;53.480;10.004;2022-08-27T07:47:29;22.33;;;12.93;;
7205;SDS011;3644;53.480;10.004;2022-08-27T07:49:56;24.73;;;12.40;;
7205;SDS011;3644;53.480;10.004;2022-08-27T07:52:22;23.13;;;11.73;;
7205;SDS011;3644;53.480;10.004;2022-08-27T07:54:48;25.73;;;11.20;;
7205;SDS011;3644;53.480;10.004;2022-08-27T07:57:14;19.07;;;10.93;;
7205;SDS011;3644;53.480;10.004;2022-08-27T07:59:40;21.47;;;12.60;;
7205;SDS011;3644;53.480;10.004;2022-08-27T08:02:05;24.80;;;11.60;;
7205;SDS011;3644;53.480;10.004;2022-08-27T08:04:31;31.80;;;12.33;;
7205;SDS011;3644;53.480;10.004;2022-08-27T08:06:56;23.67;;;11.97;;
7205;SDS011;3644;53.480;10.004;2022-08-27T08:09:22;21.97;;;11.77;;
7205;SDS011;3644;53.480;10.004;2022-08-27T08:11:49;26.80;;;12.20;;
7205;SDS011;3644;53.480;10.004;2022-08-27T08:14:16;30.53;;;14.60;;
7205;SDS011;3644;53.480;10.004;2022-08-27T08:16:42;27.93;;;14.00;;
7205;SDS011;3644;53.480;10.004;2022-08-27T08:19:07;18.63;;;12.50;;
7205;SDS011;3644;53.480;10.004;2022-08-27T08:21:33;27.23;;;12.57;;
7205;SDS011;3644;53.480;10.004;2022-08-27T08:23:59;30.23;;;11.70;;
7205;SDS011;3644;53.480;10.004;2022-08-27T08:26:26;25.20;;;13.10;;
7205;SDS011;3644;53.480;10.004;2022-08-27T08:28:52;26.87;;;11.93;;
7205;SDS011;3644;53.480;10.004;2022-08-27T08:31:17;24.40;;;12.70;;
7205;SDS011;3644;53.480;10.004;2022-08-27T08:33:43;25.40;;;12.80;;
7205;SDS011;3644;53.480;10.004;2022-08-27T08:36:11;31.70;;;11.67;;
7205;SDS011;3644;53.480;10.004;2022-08-27T08:38:39;47.87;;;12.90;;
7205;SDS011;3644;53.480;10.004;2022-08-27T08:41:05;30.60;;;12.30;;
7205;SDS011;3644;53.480;10.004;2022-08-27T08:43:50;25.10;;;12.90;;
7205;SDS011;3644;53.480;10.004;2022-08-27T08:46:34;25.03;;;11.23;;
7205;SDS011;3644;53.480;10.004;2022-08-27T08:49:14;20.77;;;12.63;;
7205;SDS011;3644;53.480;10.004;2022-08-27T08:51:53;21.27;;;10.67;;
7205;SDS011;3644;53.480;10.004;2022-08-27T08:54:21;24.07;;;10.87;;
7205;SDS011;3644;53.480;10.004;2022-08-27T08:59:34;23.17;;;11.93;;
7205;SDS011;3644;53.480;10.004;2022-08-27T09:02:07;29.10;;;10.50;;
7205;SDS011;3644;53.480;10.004;2022-08-27T09:04:35;19.13;;;10.33;;
7205;SDS011;3644;53.480;10.004;2022-08-27T09:10:17;24.53;;;9.30;;
7205;SDS011;3644;53.480;10.004;2022-08-27T09:12:53;23.10;;;10.43;;
7205;SDS011;3644;53.480;10.004;2022-08-27T09:15:25;25.17;;;11.37;;
7205;SDS011;3644;53.480;10.004;2022-08-27T09:18:05;24.00;;;10.40;;
7205;SDS011;3644;53.480;10.004;2022-08-27T09:20:34;24.37;;;11.80;;
7205;SDS011;3644;53.480;10.004;2022-08-27T09:25:42;22.57;;;9.63;;
7205;SDS011;3644;53.480;10.004;2022-08-27T09:28:13;33.30;;;10.90;;
7205;SDS011;3644;53.480;10.004;2022-08-27T09:31:02;29.80;;;10.80;;
7205;SDS011;3644;53.480;10.004;2022-08-27T09:33:30;17.83;;;9.70;;
7205;SDS011;3644;53.480;10.004;2022-08-27T09:35:59;21.17;;;10.53;;
7205;SDS011;3644;53.480;10.004;2022-08-27T09:38:28;28.30;;;10.00;;
7205;SDS011;3644;53.480;10.004;2022-08-27T09:41:00;23.00;;;11.13;;
7205;SDS011;3644;53.480;10.004;2022-08-27T09:43:30;20.73;;;9.00;;
7205;SDS011;3644;53.480;10.004;2022-08-27T09:45:59;24.43;;;9.93;;
7205;SDS011;3644;53.480;10.004;2022-08-27T09:48:30;19.40;;;9.50;;
7205;SDS011;3644;53.480;10.004;2022-08-27T09:51:04;14.40;;;8.83;;
7205;SDS011;3644;53.480;10.004;2022-08-27T09:56:05;26.80;;;10.03;;
7205;SDS011;3644;53.480;10.004;2022-08-27T09:58:40;17.97;;;9.23;;
7205;SDS011;3644;53.480;10.004;2022-08-27T10:01:20;19.70;;;9.10;;
7205;SDS011;3644;53.480;10.004;2022-08-27T10:03:48;14.23;;;8.67;;
7205;SDS011;3644;53.480;10.004;2022-08-27T10:06:24;21.07;;;9.57;;
7205;SDS011;3644;53.480;10.004;2022-08-27T10:08:55;21.33;;;8.07;;
7205;SDS011;3644;53.480;10.004;2022-08-27T10:11:29;20.50;;;8.97;;
7205;SDS011;3644;53.480;10.004;2022-08-27T10:14:04;21.87;;;10.03;;
7205;SDS011;3644;53.480;10.004;2022-08-27T10:19:20;23.10;;;9.90;;
7205;SDS011;3644;53.480;10.004;2022-08-27T10:27:38;20.80;;;9.70;;
7205;SDS011;3644;53.480;10.004;2022-08-27T10:30:19;23.03;;;9.50;;
7205;SDS011;3644;53.480;10.004;2022-08-27T10:33:03;16.27;;;9.43;;
7205;SDS011;3644;53.480;10.004;2022-08-27T10:38:13;20.43;;;8.00;;
7205;SDS011;3644;53.480;10.004;2022-08-27T10:40:53;21.13;;;9.53;;
7205;SDS011;3644;53.480;10.004;2022-08-27T10:43:44;21.10;;;10.20;;
7205;SDS011;3644;53.480;10.004;2022-08-27T10:46:37;18.77;;;10.10;;
7205;SDS011;3644;53.480;10.004;2022-08-27T10:52:26;37.03;;;10.77;;
7205;SDS011;3644;53.480;10.004;2022-08-27T10:55:01;28.63;;;12.23;;
7205;SDS011;3644;53.480;10.004;2022-08-27T10:58:03;18.13;;;9.17;;
7205;SDS011;3644;53.480;10.004;2022-08-27T11:03:40;20.20;;;8.03;;
7205;SDS011;3644;53.480;10.004;2022-08-27T11:06:21;22.20;;;7.73;;
7205;SDS011;3644;53.480;10.004;2022-08-27T11:08:57;22.37;;;8.27;;
7205;SDS011;3644;53.480;10.004;2022-08-27T11:14:08;17.77;;;6.57;;
7205;SDS011;3644;53.480;10.004;2022-08-27T11:16:47;21.83;;;8.53;;
7205;SDS011;3644;53.480;10.004;2022-08-27T11:19:18;17.47;;;7.60;;
7205;SDS011;3644;53.480;10.004;2022-08-27T11:22:04;21.40;;;7.37;;
7205;SDS011;3644;53.480;10.004;2022-08-27T11:27:21;22.30;;;8.10;;
7205;SDS011;3644;53.480;10.004;2022-08-27T11:29:58;16.80;;;7.50;;
7205;SDS011;3644;53.480;10.004;2022-08-27T11:35:16;18.30;;;8.77;;
7205;SDS011;3644;53.480;10.004;2022-08-27T11:40:27;29.37;;;10.47;;
7205;SDS011;3644;53.480;10.004;2022-08-27T11:43:19;18.07;;;7.27;;
7205;SDS011;3644;53.480;10.004;2022-08-27T11:45:52;20.93;;;7.67;;
7205;SDS011;3644;53.480;10.004;2022-08-27T11:50:59;16.07;;;6.80;;
7205;SDS011;3644;53.480;10.004;2022-08-27T11:53:56;14.53;;;6.20;;
7205;SDS011;3644;53.480;10.004;2022-08-27T11:58:55;18.43;;;6.10;;
7205;SDS011;3644;53.480;10.004;2022-08-27T12:01:32;20.33;;;5.50;;
7205;SDS011;3644;53.480;10.004;2022-08-27T12:04:18;25.07;;;6.37;;
7205;SDS011;3644;53.480;10.004;2022-08-27T12:12:45;12.50;;;4.20;;
7205;SDS011;3644;53.480;10.004;2022-08-27T12:21:25;9.67;;;4.40;;
7205;SDS011;3644;53.480;10.004;2022-08-27T12:27:14;18.50;;;3.70;;
7205;SDS011;3644;53.480;10.004;2022-08-27T12:29:49;19.50;;;3.30;;
7205;SDS011;3644;53.480;10.004;2022-08-27T12:37:30;12.93;;;4.30;;
7205;SDS011;3644;53.480;10.004;2022-08-27T12:40:01;13.87;;;3.80;;
7205;SDS011;3644;53.480;10.004;2022-08-27T12:42:33;15.53;;;3.67;;
7205;SDS011;3644;53.480;10.004;2022-08-27T12:44:58;11.63;;;3.43;;
7205;SDS011;3644;53.480;10.004;2022-08-27T12:47:24;16.43;;;4.27;;
7205;SDS011;3644;53.480;10.004;2022-08-27T12:49:51;13.00;;;3.20;;
7205;SDS011;3644;53.480;10.004;2022-08-27T13:00:37;10.53;;;3.23;;
7205;SDS011;3644;53.480;10.004;2022-08-27T13:03:33;15.27;;;3.77;;
7205;SDS011;3644;53.480;10.004;2022-08-27T13:06:02;15.17;;;3.00;;
7205;SDS011;3644;53.480;10.004;2022-08-27T13:08:39;13.87;;;3.40;;
7205;SDS011;3644;53.480;10.004;2022-08-27T13:11:06;12.83;;;2.90;;
7205;SDS011;3644;53.480;10.004;2022-08-27T13:13:42;13.27;;;3.67;;
7205;SDS011;3644;53.480;10.004;2022-08-27T13:16:08;10.43;;;3.50;;
7205;SDS011;3644;53.480;10.004;2022-08-27T13:18:34;10.60;;;3.77;;
7205;SDS011;3644;53.480;10.004;2022-08-27T13:21:03;17.03;;;4.27;;
7205;SDS011;3644;53.480;10.004;2022-08-27T13:23:53;7.57;;;2.77;;
7205;SDS011;3644;53.480;10.004;2022-08-27T13:26:22;8.97;;;3.20;;
7205;SDS011;3644;53.480;10.004;2022-08-27T13:28:50;9.20;;;3.10;;
7205;SDS011;3644;53.480;10.004;2022-08-27T13:31:17;12.97;;;3.67;;
7205;SDS011;3644;53.480;10.004;2022-08-27T13:33:44;10.37;;;3.80;;
7205;SDS011;3644;53.480;10.004;2022-08-27T13:36:11;12.73;;;3.30;;
7205;SDS011;3644;53.480;10.004;2022-08-27T13:38:40;15.00;;;3.17;;
7205;SDS011;3644;53.480;10.004;2022-08-27T13:43:37;15.67;;;3.60;;
7205;SDS011;3644;53.480;10.004;2022-08-27T13:46:10;8.43;;;2.73;;
7205;SDS011;3644;53.480;10.004;2022-08-27T13:48:44;12.30;;;4.30;;
7205;SDS011;3644;53.480;10.004;2022-08-27T13:51:13;17.00;;;3.43;;
7205;SDS011;3644;53.480;10.004;2022-08-27T13:53:46;11.63;;;3.03;;
7205;SDS011;3644;53.480;10.004;2022-08-27T13:56:36;8.23;;;3.03;;
7205;SDS011;3644;53.480;10.004;2022-08-27T14:02:26;13.13;;;2.70;;
7205;SDS011;3644;53.480;10.004;2022-08-27T14:04:46;6.83;;;2.17;;
7205;SDS011;3644;53.480;10.004;2022-08-27T14:07:32;5.90;;;2.53;;
7205;SDS011;3644;53.480;10.004;2022-08-27T14:17:55;7.97;;;2.50;;
7205;SDS011;3644;53.480;10.004;2022-08-27T14:20:21;16.33;;;3.17;;
7205;SDS011;3644;53.480;10.004;2022-08-27T14:22:47;7.77;;;2.47;;
7205;SDS011;3644;53.480;10.004;2022-08-27T14:25:14;11.97;;;2.97;;
7205;SDS011;3644;53.480;10.004;2022-08-27T14:27:41;8.63;;;1.90;;
7205;SDS011;3644;53.480;10.004;2022-08-27T14:30:09;9.60;;;2.10;;
7205;SDS011;3644;53.480;10.004;2022-08-27T14:32:37;8.03;;;1.33;;
7205;SDS011;3644;53.480;10.004;2022-08-27T14:35:03;9.40;;;2.63;;
7205;SDS011;3644;53.480;10.004;2022-08-27T14:37:29;13.40;;;2.77;;
7205;SDS011;3644;53.480;10.004;2022-08-27T14:39:55;9.00;;;2.13;;
7205;SDS011;3644;53.480;10.004;2022-08-27T14:42:20;10.03;;;2.00;;
7205;SDS011;3644;53.480;10.004;2022-08-27T14:44:46;8.13;;;1.90;;
7205;SDS011;3644;53.480;10.004;2022-08-27T14:47:12;15.43;;;1.93;;
7205;SDS011;3644;53.480;10.004;2022-08-27T14:49:40;11.20;;;2.97;;
7205;SDS011;3644;53.480;10.004;2022-08-27T14:52:09;12.03;;;2.37;;
7205;SDS011;3644;53.480;10.004;2022-08-27T14:54:36;11.40;;;2.50;;
7205;SDS011;3644;53.480;10.004;2022-08-27T14:57:02;9.93;;;2.33;;
7205;SDS011;3644;53.480;10.004;2022-08-27T14:59:29;10.90;;;2.40;;
7205;SDS011;3644;53.480;10.004;2022-08-27T15:01:56;6.43;;;2.10;;
7205;SDS011;3644;53.480;10.004;2022-08-27T15:04:23;8.07;;;2.43;;
7205;SDS011;3644;53.480;10.004;2022-08-27T15:06:49;16.50;;;2.50;;
7205;SDS011;3644;53.480;10.004;2022-08-27T15:09:15;8.10;;;1.70;;
7205;SDS011;3644;53.480;10.004;2022-08-27T15:11:41;13.83;;;2.43;;
7205;SDS011;3644;53.480;10.004;2022-08-27T15:14:11;4.93;;;2.00;;
7205;SDS011;3644;53.480;10.004;2022-08-27T15:16:41;10.10;;;2.87;;
7205;SDS011;3644;53.480;10.004;2022-08-27T15:19:08;10.83;;;2.50;;
7205;SDS011;3644;53.480;10.004;2022-08-27T15:21:36;19.93;;;3.43;;
7205;SDS011;3644;53.480;10.004;2022-08-27T15:24:15;7.97;;;1.93;;
7205;SDS011;3644;53.480;10.004;2022-08-27T15:26:43;7.70;;;2.40;;
7205;SDS011;3644;53.480;10.004;2022-08-27T15:29:09;8.83;;;2.70;;
7205;SDS011;3644;53.480;10.004;2022-08-27T15:31:35;7.17;;;2.50;;
7205;SDS011;3644;53.480;10.004;2022-08-27T15:34:00;8.73;;;2.07;;
7205;SDS011;3644;53.480;10.004;2022-08-27T15:36:26;15.90;;;2.47;;
7205;SDS011;3644;53.480;10.004;2022-08-27T15:38:52;7.13;;;1.90;;
7205;SDS011;3644;53.480;10.004;2022-08-27T15:41:19;11.63;;;2.73;;
7205;SDS011;3644;53.480;10.004;2022-08-27T15:43:45;8.00;;;1.93;;
7205;SDS011;3644;53.480;10.004;2022-08-27T15:46:10;5.87;;;2.47;;
7205;SDS011;3644;53.480;10.004;2022-08-27T15:48:36;8.43;;;2.10;;
7205;SDS011;3644;53.480;10.004;2022-08-27T15:51:04;14.87;;;2.00;;
7205;SDS011;3644;53.480;10.004;2022-08-27T15:53:34;16.50;;;3.00;;
7205;SDS011;3644;53.480;10.004;2022-08-27T15:56:02;11.53;;;2.70;;
7205;SDS011;3644;53.480;10.004;2022-08-27T15:58:29;9.73;;;3.50;;
7205;SDS011;3644;53.480;10.004;2022-08-27T16:01:01;8.10;;;2.60;;
7205;SDS011;3644;53.480;10.004;2022-08-27T16:03:30;13.53;;;2.83;;
7205;SDS011;3644;53.480;10.004;2022-08-27T16:05:56;19.83;;;2.63;;
7205;SDS011;3644;53.480;10.004;2022-08-27T16:08:22;17.27;;;2.60;;
7205;SDS011;3644;53.480;10.004;2022-08-27T16:10:47;13.80;;;3.60;;
7205;SDS011;3644;53.480;10.004;2022-08-27T16:13:13;11.43;;;2.57;;
7205;SDS011;3644;53.480;10.004;2022-08-27T16:15:38;17.20;;;3.13;;
7205;SDS011;3644;53.480;10.004;2022-08-27T16:18:05;10.03;;;3.10;;
7205;SDS011;3644;53.480;10.004;2022-08-27T16:20:31;9.80;;;2.33;;